Time;durP1;ratioP1;P1;durP2;ratioP2;P2;SDS_P1;SDS_P2;PMS_P1;PMS_P2;Temp;Humidity;BMP_temperature;BMP_pressure;BME280_temperature;BME280_humidity;BME280_pressure;Samples;Min_cycle;Max_cycle;Signal;HPM_P1;HPM_P2
2023/09/07 00:00:18;;;;;;;6.73;4.30;;;;;;;23.13;68.23;100495.50;5068778;28;20950;-59
2023/09/07 00:02:43;;;;;;;6.23;3.87;;;;;;;23.13;68.33;100502.06;5095696;28;20458;-59
2023/09/07 00:05:09;;;;;;;6.97;3.90;;;;;;;23.13;68.37;100501.28;5090596;28;20523;-60
2023/09/07 00:07:35;;;;;;;6.83;3.90;;;;;;;23.12;68.07;100496.72;5108723;28;20169;-60
2023/09/07 00:10:01;;;;;;;5.37;3.63;;;;;;;23.11;67.91;100493.03;5108868;28;20162;-59
2023/09/07 00:12:26;;;;;;;5.23;4.57;;;;;;;23.12;67.80;100499.59;5101579;28;20441;-60
2023/09/07 00:14:55;;;;;;;5.00;3.80;;;;;;;23.12;67.93;100491.78;5088429;28;20186;-60
2023/09/07 00:17:21;;;;;;;5.53;4.20;;;;;;;23.11;67.96;100498.78;5069969;28;20222;-60
2023/09/07 00:19:48;;;;;;;6.97;3.67;;;;;;;23.11;68.13;100497.97;5088134;28;20436;-59
2023/09/07 00:22:14;;;;;;;8.90;3.83;;;;;;;23.11;67.68;100500.84;5092877;28;20529;-59
2023/09/07 00:24:40;;;;;;;5.60;3.80;;;;;;;23.12;67.92;100496.72;5069984;28;20420;-60
2023/09/07 00:27:07;;;;;;;4.90;3.10;;;;;;;23.11;67.97;100492.19;5087981;28;20167;-60
2023/09/07 00:29:35;;;;;;;5.80;4.30;;;;;;;23.10;68.05;100490.56;5093056;28;20280;-60
2023/09/07 00:32:01;;;;;;;5.97;4.37;;;;;;;23.10;68.13;100491.38;5098680;28;20435;-60
2023/09/07 00:34:26;;;;;;;7.00;3.87;;;;;;;23.10;67.79;100497.16;5107844;28;20477;-59
2023/09/07 00:36:52;;;;;;;6.00;3.67;;;;;;;23.09;68.13;100488.91;5072094;28;20190;-59
2023/09/07 00:39:17;;;;;;;4.50;3.60;;;;;;;23.10;68.07;100494.28;5106343;28;20876;-60
2023/09/07 00:41:43;;;;;;;7.80;3.87;;;;;;;23.10;68.17;100493.44;5070423;28;20709;-60
2023/09/07 00:44:08;;;;;;;6.00;3.90;;;;;;;23.08;68.05;100493.84;5068560;28;20162;-60
2023/09/07 00:46:34;;;;;;;6.93;4.00;;;;;;;23.09;67.98;100488.91;5089164;28;20217;-59
2023/09/07 00:48:59;;;;;;;7.70;3.90;;;;;;;23.08;68.34;100485.19;5106336;28;20173;-59
2023/09/07 00:51:24;;;;;;;5.20;3.80;;;;;;;23.09;68.03;100488.91;5100256;28;20185;-59
2023/09/07 00:53:50;;;;;;;5.47;4.33;;;;;;;23.08;68.21;100496.72;5091897;28;20178;-60
2023/09/07 00:56:16;;;;;;;10.90;4.30;;;;;;;23.07;68.14;100489.31;5104481;28;20867;-59
2023/09/07 00:58:41;;;;;;;4.90;4.00;;;;;;;23.08;68.15;100490.97;5088845;28;20222;-59
2023/09/07 01:01:07;;;;;;;4.97;3.67;;;;;;;23.08;67.95;100495.91;5103324;28;20209;-60
2023/09/07 01:03:32;;;;;;;4.70;3.20;;;;;;;23.07;68.04;100495.06;5106089;28;20185;-60
2023/09/07 01:06:00;;;;;;;4.20;3.33;;;;;;;23.07;68.34;100503.72;5107697;28;20162;-60
2023/09/07 01:08:49;;;;;;;6.20;4.00;;;;;;;23.08;67.99;100501.66;5101178;28;20203;-59
2023/09/07 01:11:15;;;;;;;4.73;3.73;;;;;;;23.06;67.78;100496.31;5087896;28;20415;-60
2023/09/07 01:13:42;;;;;;;5.70;3.87;;;;;;;23.06;68.13;100496.31;5085754;28;20430;-60
2023/09/07 01:16:07;;;;;;;4.63;3.27;;;;;;;23.06;67.94;100499.19;5108667;28;20453;-59
2023/09/07 01:18:33;;;;;;;4.83;3.93;;;;;;;23.06;67.96;100496.31;5106313;28;20443;-59
2023/09/07 01:20:58;;;;;;;5.50;4.00;;;;;;;23.04;67.96;100498.78;5110931;28;20201;-60
2023/09/07 01:23:24;;;;;;;8.60;4.70;;;;;;;23.05;68.20;100493.84;5085665;28;20181;-60
2023/09/07 01:25:49;;;;;;;5.60;3.60;;;;;;;23.05;67.97;100493.84;5112216;28;20181;-60
2023/09/07 01:28:15;;;;;;;4.57;3.53;;;;;;;23.05;67.86;100493.84;5092250;28;20181;-60
2023/09/07 01:30:41;;;;;;;5.60;3.70;;;;;;;23.04;67.88;100504.53;5112075;28;20173;-60
2023/09/07 01:33:08;;;;;;;5.90;4.07;;;;;;;23.04;67.98;100490.16;5107816;28;20553;-60
2023/09/07 01:35:34;;;;;;;6.60;3.43;;;;;;;23.04;67.69;100492.19;5093971;28;20426;-59
2023/09/07 01:37:59;;;;;;;5.23;3.73;;;;;;;23.03;67.70;100494.22;5090982;28;20424;-60
2023/09/07 01:40:25;;;;;;;4.53;3.40;;;;;;;23.04;67.94;100492.19;5092772;28;20649;-60
2023/09/07 01:42:51;;;;;;;6.13;3.87;;;;;;;23.04;67.77;100492.19;5090408;28;20544;-60
2023/09/07 01:45:16;;;;;;;4.20;3.23;;;;;;;23.02;67.52;100492.59;5090577;28;20424;-59
2023/09/07 01:47:41;;;;;;;6.70;3.57;;;;;;;23.02;67.47;100489.72;5091788;28;20206;-60
2023/09/07 01:50:07;;;;;;;5.53;3.37;;;;;;;23.02;67.74;100488.91;5088747;28;20702;-60
2023/09/07 01:52:33;;;;;;;5.17;3.80;;;;;;;23.01;67.87;100479.44;5093771;28;20554;-60
2023/09/07 01:54:58;;;;;;;5.40;3.67;;;;;;;23.01;67.67;100485.19;5089104;28;20727;-60
2023/09/07 01:57:24;;;;;;;4.97;3.40;;;;;;;23.02;67.64;100483.94;5089183;28;20178;-59
2023/09/07 01:59:49;;;;;;;5.13;3.40;;;;;;;23.01;67.49;100493.00;5088927;28;20173;-59
2023/09/07 02:02:15;;;;;;;4.13;3.17;;;;;;;23.01;67.50;100493.81;5098790;28;20205;-60
2023/09/07 02:04:43;;;;;;;5.37;3.73;;;;;;;23.00;67.49;100485.59;5095045;28;20582;-60
2023/09/07 02:07:08;;;;;;;4.47;3.50;;;;;;;22.99;67.59;100490.53;5091166;28;20178;-60
2023/09/07 02:09:34;;;;;;;4.27;3.40;;;;;;;23.00;67.38;100497.94;5090829;28;20427;-59
2023/09/07 02:11:59;;;;;;;4.17;3.30;;;;;;;23.00;67.62;100491.34;5107124;28;20194;-61
2023/09/07 02:14:25;;;;;;;4.87;3.33;;;;;;;22.99;67.57;100490.53;5111275;28;20524;-60
2023/09/07 02:16:50;;;;;;;5.40;3.13;;;;;;;22.99;67.18;100481.06;5110881;28;20577;-60
2023/09/07 02:19:16;;;;;;;5.67;3.90;;;;;;;22.99;67.47;100483.94;5108781;28;20211;-60
2023/09/07 02:21:41;;;;;;;7.27;3.77;;;;;;;22.99;67.13;100484.78;5091533;28;20283;-59
2023/09/07 02:24:07;;;;;;;6.00;3.70;;;;;;;22.99;67.71;100481.91;5071888;28;20182;-59
2023/09/07 02:26:32;;;;;;;4.60;3.30;;;;;;;22.98;67.36;100479.44;5093350;28;20186;-60
2023/09/07 02:28:58;;;;;;;4.77;3.37;;;;;;;22.98;67.31;100477.34;5090565;28;20530;-59
2023/09/07 02:31:23;;;;;;;5.03;3.33;;;;;;;22.97;67.41;100475.72;5077698;28;20209;-59
2023/09/07 02:33:49;;;;;;;4.57;3.13;;;;;;;22.97;67.11;100474.91;5110678;28;20181;-59
2023/09/07 02:36:14;;;;;;;4.50;3.37;;;;;;;22.96;67.16;100482.69;5109132;28;20181;-60
2023/09/07 02:38:39;;;;;;;5.87;3.53;;;;;;;22.97;67.33;100480.66;5104260;28;20193;-59
2023/09/07 02:41:05;;;;;;;4.70;3.77;;;;;;;22.97;67.17;100480.66;5109252;28;20201;-59
2023/09/07 02:43:31;;;;;;;4.10;3.53;;;;;;;22.95;67.34;100483.94;5109655;28;20178;-59
2023/09/07 02:45:56;;;;;;;4.70;3.57;;;;;;;22.95;67.19;100483.94;5106294;28;20549;-59
2023/09/07 02:48:22;;;;;;;4.63;3.03;;;;;;;22.95;67.34;100492.59;5088524;28;20200;-59
2023/09/07 02:50:49;;;;;;;4.37;3.13;;;;;;;22.96;67.24;100484.75;5088077;28;20190;-60
2023/09/07 02:53:15;;;;;;;4.33;3.17;;;;;;;22.96;67.28;100487.63;5073294;28;20225;-59
2023/09/07 02:55:40;;;;;;;4.37;3.27;;;;;;;22.94;67.27;100482.31;5076625;28;20912;-60
2023/09/07 02:58:06;;;;;;;4.37;3.30;;;;;;;22.94;66.85;100488.06;5088721;28;20534;-60
2023/09/07 03:00:31;;;;;;;5.10;3.83;;;;;;;22.95;67.10;100488.88;5089470;28;20201;-60
2023/09/07 03:02:56;;;;;;;4.57;3.50;;;;;;;22.95;67.39;100485.97;5088155;28;20185;-60
2023/09/07 03:05:22;;;;;;;4.20;3.20;;;;;;;22.94;67.05;100485.19;5110212;28;20678;-59
2023/09/07 03:07:47;;;;;;;5.40;3.80;;;;;;;22.94;66.90;100482.31;5110010;28;20670;-60
2023/09/07 03:10:13;;;;;;;5.20;3.60;;;;;;;22.93;67.39;100480.63;5089178;28;20667;-59
2023/09/07 03:12:39;;;;;;;5.13;3.73;;;;;;;22.93;66.96;100480.63;5055046;28;20312;-60
2023/09/07 03:15:05;;;;;;;5.40;3.87;;;;;;;22.92;66.94;100478.19;5091169;28;20177;-59
2023/09/07 03:17:30;;;;;;;5.30;3.67;;;;;;;22.92;67.25;100481.88;5091727;28;20241;-59
2023/09/07 03:19:56;;;;;;;5.60;3.60;;;;;;;22.91;66.90;100470.75;5089244;28;20425;-59
2023/09/07 03:22:23;;;;;;;4.40;3.20;;;;;;;22.91;66.72;100480.22;5091532;28;20246;-59
2023/09/07 03:24:50;;;;;;;3.50;3.10;;;;;;;22.91;67.04;100468.69;5087679;28;20277;-59
2023/09/07 03:27:16;;;;;;;3.77;2.70;;;;;;;22.92;67.13;100466.66;5097847;28;20994;-60
2023/09/07 03:29:41;;;;;;;4.60;3.60;;;;;;;22.91;66.67;100468.69;5101136;28;20427;-60
2023/09/07 03:32:08;;;;;;;4.20;2.60;;;;;;;22.90;66.50;100469.94;5108583;28;20181;-60
2023/09/07 03:34:34;;;;;;;4.87;3.50;;;;;;;22.90;66.50;100467.06;5108242;28;20265;-59
2023/09/07 03:36:59;;;;;;;4.70;3.37;;;;;;;22.89;66.76;100468.31;5104417;28;20447;-60
2023/09/07 03:39:24;;;;;;;4.33;2.90;;;;;;;22.89;66.83;100467.47;5106720;28;20613;-60
2023/09/07 03:41:50;;;;;;;3.47;2.77;;;;;;;22.89;67.09;100471.19;5088214;28;20189;-60
2023/09/07 03:44:15;;;;;;;4.53;3.13;;;;;;;22.88;67.08;100472.38;5086447;28;21021;-59
2023/09/07 03:46:41;;;;;;;4.73;3.00;;;;;;;22.88;66.63;100472.38;5094145;28;20190;-59
2023/09/07 03:49:07;;;;;;;4.80;3.27;;;;;;;22.87;66.82;100476.50;5108140;28;20184;-60
2023/09/07 03:51:32;;;;;;;5.00;3.70;;;;;;;22.87;66.73;100470.75;5087386;28;20166;-59
2023/09/07 03:53:58;;;;;;;4.20;3.03;;;;;;;22.88;66.54;100477.34;5090003;28;20202;-60
2023/09/07 03:56:24;;;;;;;4.93;2.90;;;;;;;22.87;66.54;100467.88;5105777;28;20181;-60
2023/09/07 03:58:49;;;;;;;4.53;3.27;;;;;;;22.87;66.67;100470.75;5105827;28;20423;-59
2023/09/07 04:01:15;;;;;;;3.97;3.37;;;;;;;22.87;66.38;100469.94;5105520;28;20260;-59
2023/09/07 04:03:41;;;;;;;4.40;3.10;;;;;;;22.86;66.33;100469.09;5108663;28;20181;-59
2023/09/07 04:06:07;;;;;;;4.00;2.87;;;;;;;22.86;66.22;100463.34;5108577;28;20748;-59
2023/09/07 04:08:32;;;;;;;3.93;3.00;;;;;;;22.86;66.56;100462.50;5108707;28;20419;-59
2023/09/07 04:10:58;;;;;;;4.03;3.30;;;;;;;22.85;66.72;100464.56;5100606;28;20186;-60
2023/09/07 04:13:23;;;;;;;4.67;2.83;;;;;;;22.86;66.13;100468.25;5070289;28;20182;-59
2023/09/07 04:15:49;;;;;;;4.33;2.63;;;;;;;22.85;66.34;100478.13;5087912;28;20198;-58
2023/09/07 04:18:17;;;;;;;4.00;3.10;;;;;;;22.85;66.07;100475.25;5102002;28;20705;-59
2023/09/07 04:20:43;;;;;;;3.67;2.60;;;;;;;22.84;66.13;100474.44;5096180;28;20210;-60
2023/09/07 04:23:08;;;;;;;3.67;2.80;;;;;;;22.84;66.45;100476.50;5088545;28;20454;-60
2023/09/07 04:25:34;;;;;;;4.07;3.13;;;;;;;22.84;66.48;100474.44;5096207;28;20439;-60
2023/09/07 04:28:00;;;;;;;3.23;2.43;;;;;;;22.83;66.02;100469.09;5108491;28;20181;-60
2023/09/07 04:30:25;;;;;;;4.07;2.60;;;;;;;22.83;66.58;100472.78;5106416;28;20169;-59
2023/09/07 04:32:51;;;;;;;3.77;2.70;;;;;;;22.83;66.30;100469.09;5101004;28;20181;-59
2023/09/07 04:35:16;;;;;;;4.63;3.40;;;;;;;22.82;66.46;100474.00;5108074;28;20178;-59
2023/09/07 04:37:43;;;;;;;3.90;2.80;;;;;;;22.82;65.92;100473.22;5096168;28;20188;-59
2023/09/07 04:40:09;;;;;;;4.60;3.47;;;;;;;22.82;66.10;100470.34;5086718;28;20155;-59
2023/09/07 04:42:34;;;;;;;4.53;3.07;;;;;;;22.81;66.18;100478.13;5105013;28;20419;-59
2023/09/07 04:45:00;;;;;;;4.07;3.13;;;;;;;22.81;66.06;100483.88;5107228;28;20515;-59
2023/09/07 04:47:25;;;;;;;3.87;2.90;;;;;;;22.80;66.01;100481.41;5092442;28;20201;-60
2023/09/07 04:49:51;;;;;;;5.80;3.10;;;;;;;22.81;65.93;100485.94;5085369;28;20194;-59
2023/09/07 04:52:16;;;;;;;6.00;3.40;;;;;;;22.80;66.24;100481.41;5089282;28;20190;-59
2023/09/07 04:54:43;;;;;;;4.40;3.17;;;;;;;22.80;65.98;100481.41;5092806;28;20622;-59
2023/09/07 04:57:08;;;;;;;4.87;3.20;;;;;;;22.80;66.21;100485.13;5106366;28;20169;-59
2023/09/07 04:59:34;;;;;;;5.30;3.17;;;;;;;22.79;66.08;100480.59;5105899;28;20914;-59
2023/09/07 05:02:01;;;;;;;5.83;2.97;;;;;;;22.79;66.08;100492.13;5095491;28;20899;-60
2023/09/07 05:04:26;;;;;;;5.30;3.63;;;;;;;22.79;65.77;100492.13;5103710;28;20200;-58
2023/09/07 05:06:52;;;;;;;4.27;3.57;;;;;;;22.79;65.73;100497.88;5107898;28;20407;-58
2023/09/07 05:09:17;;;;;;;5.07;3.33;;;;;;;22.79;65.77;100491.28;5108219;28;20196;-60
2023/09/07 05:11:43;;;;;;;6.00;3.27;;;;;;;22.78;66.03;100501.97;5092438;28;20224;-59
2023/09/07 05:14:08;;;;;;;4.43;3.50;;;;;;;22.77;65.71;100500.31;5087668;28;20658;-59
2023/09/07 05:16:34;;;;;;;5.37;2.83;;;;;;;22.77;65.60;100506.06;5089435;28;20590;-59
2023/09/07 05:18:59;;;;;;;4.20;3.03;;;;;;;22.76;66.13;100510.19;5092579;28;20192;-59
2023/09/07 05:21:25;;;;;;;3.40;2.67;;;;;;;22.77;65.94;100496.63;5089374;28;20213;-60
2023/09/07 05:23:50;;;;;;;4.93;3.00;;;;;;;22.76;65.99;100504.44;5077715;28;20190;-60
2023/09/07 05:26:20;;;;;;;5.30;3.17;;;;;;;22.76;65.74;100507.31;5069570;28;20193;-58
2023/09/07 05:28:46;;;;;;;5.07;3.30;;;;;;;22.75;65.69;100508.53;5095550;28;20182;-59
2023/09/07 05:31:11;;;;;;;4.47;3.07;;;;;;;22.75;65.80;100508.53;5100286;28;20435;-58
2023/09/07 05:33:37;;;;;;;4.67;3.20;;;;;;;22.76;65.72;100515.09;5104031;28;20189;-58
2023/09/07 05:36:02;;;;;;;3.60;2.53;;;;;;;22.76;65.98;100520.88;5102429;28;20190;-58
2023/09/07 05:38:28;;;;;;;4.30;3.20;;;;;;;22.75;65.77;100522.09;5087339;28;20182;-59
2023/09/07 05:40:54;;;;;;;4.20;2.97;;;;;;;22.75;65.73;100531.56;5106839;28;20209;-59
2023/09/07 05:43:20;;;;;;;5.27;2.57;;;;;;;22.74;65.70;100535.69;5107690;28;20169;-59
2023/09/07 05:45:45;;;;;;;4.73;3.60;;;;;;;22.75;65.63;100530.72;5104434;28;20220;-59
2023/09/07 05:48:11;;;;;;;3.50;2.77;;;;;;;22.75;65.89;100536.50;5107976;28;20416;-59
2023/09/07 05:50:37;;;;;;;4.47;3.03;;;;;;;22.73;65.62;100531.13;5103720;28;20206;-59
2023/09/07 05:53:03;;;;;;;4.10;3.10;;;;;;;22.74;65.80;100538.56;5106768;28;20644;-59
2023/09/07 05:55:28;;;;;;;4.03;2.83;;;;;;;22.73;65.44;100533.22;5107517;28;20415;-58
2023/09/07 05:57:54;;;;;;;4.03;2.87;;;;;;;22.73;65.71;100539.78;5094863;28;20192;-60
2023/09/07 06:00:20;;;;;;;4.30;3.40;;;;;;;22.72;65.56;100541.00;5104081;28;20196;-59
2023/09/07 06:02:45;;;;;;;4.73;3.50;;;;;;;22.72;65.44;100549.63;5110883;28;20181;-60
2023/09/07 06:05:11;;;;;;;4.07;3.20;;;;;;;22.72;65.36;100543.88;5111400;28;20173;-59
2023/09/07 06:07:36;;;;;;;4.67;3.30;;;;;;;22.73;65.45;100544.72;5097082;28;20851;-59
2023/09/07 06:10:02;;;;;;;5.43;2.93;;;;;;;22.72;65.67;100534.44;5093273;28;20182;-59
2023/09/07 06:12:27;;;;;;;4.50;3.13;;;;;;;22.72;65.36;100543.06;5090669;28;20227;-59
2023/09/07 06:14:53;;;;;;;3.90;3.00;;;;;;;22.72;65.55;100540.19;5093336;28;20183;-60
2023/09/07 06:17:18;;;;;;;3.73;2.90;;;;;;;22.71;65.45;100527.84;5090381;28;20283;-58
2023/09/07 06:19:44;;;;;;;4.60;3.40;;;;;;;22.71;65.50;100530.72;5090972;28;20162;-59
2023/09/07 06:22:09;;;;;;;4.60;3.53;;;;;;;22.72;65.39;100534.44;5110350;28;20190;-59
2023/09/07 06:24:35;;;;;;;5.20;3.00;;;;;;;22.72;65.33;100546.75;5105874;28;20637;-59
2023/09/07 06:27:00;;;;;;;4.70;3.40;;;;;;;22.71;65.54;100539.38;5109651;28;20162;-59
2023/09/07 06:29:26;;;;;;;4.90;3.70;;;;;;;22.72;65.77;100543.06;5094752;28;20190;-59
2023/09/07 06:31:52;;;;;;;4.10;3.23;;;;;;;22.72;65.31;100548.84;5092429;28;20186;-58
2023/09/07 06:34:17;;;;;;;5.10;3.50;;;;;;;22.71;65.33;100548.00;5090362;28;20182;-60
2023/09/07 06:36:43;;;;;;;5.30;3.07;;;;;;;22.71;65.35;100552.91;5090727;28;20181;-59
2023/09/07 06:39:09;;;;;;;4.00;3.27;;;;;;;22.70;65.61;100557.03;5092584;28;20186;-59
2023/09/07 06:41:34;;;;;;;4.93;3.20;;;;;;;22.71;65.48;100552.91;5090241;28;20202;-58
2023/09/07 06:43:59;;;;;;;4.37;3.10;;;;;;;22.71;66.03;100564.44;5104048;28;20627;-58
2023/09/07 06:46:25;;;;;;;6.17;3.13;;;;;;;22.70;65.33;100557.88;5090248;28;20189;-60
2023/09/07 06:48:50;;;;;;;4.17;2.90;;;;;;;22.70;65.67;100560.75;5089945;28;20163;-59
2023/09/07 06:51:16;;;;;;;5.13;3.30;;;;;;;22.70;65.83;100569.38;5105084;28;20189;-59
2023/09/07 06:53:41;;;;;;;4.03;3.00;;;;;;;22.70;65.65;100569.38;5110501;28;20177;-59
2023/09/07 06:56:07;;;;;;;4.60;3.00;;;;;;;22.70;65.38;100566.50;5104235;28;20186;-59
2023/09/07 06:58:34;;;;;;;4.60;3.30;;;;;;;22.70;65.65;100562.78;5092561;28;20892;-58
2023/09/07 07:00:59;;;;;;;4.33;3.47;;;;;;;22.70;65.63;100562.78;5090455;28;20194;-59
2023/09/07 07:03:29;;;;;;;4.13;3.27;;;;;;;22.69;65.79;100561.97;5092678;28;20447;-58
2023/09/07 07:05:55;;;;;;;5.43;3.60;;;;;;;22.70;65.42;100569.38;5092327;28;20181;-59
2023/09/07 07:08:20;;;;;;;5.40;2.90;;;;;;;22.70;65.64;100563.63;5094125;28;21025;-60
2023/09/07 07:10:45;;;;;;;5.93;2.90;;;;;;;22.70;65.42;100569.38;5107710;28;20445;-59
2023/09/07 07:13:11;;;;;;;4.60;2.93;;;;;;;22.69;65.78;100561.97;5106417;28;20692;-59
2023/09/07 07:15:36;;;;;;;4.40;3.20;;;;;;;22.70;65.53;100568.53;5108825;28;20645;-59
2023/09/07 07:18:08;;;;;;;4.40;3.10;;;;;;;22.70;65.67;100574.31;5101498;28;20237;-59
2023/09/07 07:20:37;;;;;;;6.70;3.73;;;;;;;22.70;65.96;100575.13;5083723;28;20719;-59
2023/09/07 07:23:02;;;;;;;4.20;3.20;;;;;;;22.69;65.60;100570.63;5102703;28;20457;-60
2023/09/07 07:25:28;;;;;;;4.60;3.60;;;;;;;22.70;65.65;100577.19;5089189;28;20759;-58
2023/09/07 07:27:53;;;;;;;4.30;3.37;;;;;;;22.70;66.08;100578.03;5098290;28;20270;-58
2023/09/07 07:30:19;;;;;;;4.30;2.80;;;;;;;22.71;65.76;100575.94;5095233;28;20201;-57
2023/09/07 07:32:44;;;;;;;4.23;2.73;;;;;;;22.71;65.85;100576.78;5103586;28;20174;-60
2023/09/07 07:35:10;;;;;;;7.67;3.83;;;;;;;22.71;65.80;100578.81;5091393;28;20182;-59
2023/09/07 07:37:35;;;;;;;4.90;3.27;;;;;;;22.71;65.80;100581.69;5088984;28;20269;-58
2023/09/07 07:40:01;;;;;;;5.57;3.23;;;;;;;22.70;65.89;100575.13;5098370;28;20193;-59
2023/09/07 07:42:26;;;;;;;4.23;3.00;;;;;;;22.72;65.64;100574.75;5091359;28;20217;-59
2023/09/07 07:44:51;;;;;;;5.83;3.57;;;;;;;22.68;66.07;100574.69;5071109;28;20178;-58
2023/09/07 07:47:17;;;;;;;5.37;3.70;;;;;;;22.67;66.37;100578.00;5096097;28;20186;-59
2023/09/07 07:49:42;;;;;;;5.67;3.37;;;;;;;22.68;66.15;100571.00;5095052;28;20198;-59
2023/09/07 07:52:08;;;;;;;4.77;3.40;;;;;;;22.69;66.01;100582.13;5097221;28;20182;-59
2023/09/07 07:54:34;;;;;;;6.43;3.17;;;;;;;22.69;66.01;100575.53;5091363;28;20657;-59
2023/09/07 07:56:59;;;;;;;5.87;2.93;;;;;;;22.69;66.57;100582.13;5082136;28;21020;-59
2023/09/07 07:59:24;;;;;;;7.37;3.73;;;;;;;22.69;66.63;100576.38;5076275;28;20198;-60
2023/09/07 08:01:50;;;;;;;6.10;3.43;;;;;;;22.71;66.12;100578.81;5099496;28;20243;-60
2023/09/07 08:04:15;;;;;;;5.03;3.50;;;;;;;22.70;66.47;100575.13;5099764;28;20317;-60
2023/09/07 08:06:41;;;;;;;5.30;3.67;;;;;;;22.69;66.58;100582.13;5103647;28;20185;-59
2023/09/07 08:09:08;;;;;;;6.13;3.10;;;;;;;22.70;66.82;100580.06;5076517;28;20641;-60
2023/09/07 08:11:33;;;;;;;4.37;3.20;;;;;;;22.71;66.78;100576.78;5109045;28;20185;-59
2023/09/07 08:13:59;;;;;;;7.17;3.20;;;;;;;22.70;66.24;100575.13;5092900;28;20439;-59
2023/09/07 08:16:24;;;;;;;7.07;2.70;;;;;;;22.71;66.49;100581.69;5090447;28;20287;-60
2023/09/07 08:18:50;;;;;;;7.00;4.17;;;;;;;22.71;66.86;100584.59;5101058;28;20182;-59
2023/09/07 08:21:15;;;;;;;5.53;2.83;;;;;;;22.71;66.40;100581.69;5108462;28;20497;-60
2023/09/07 08:23:41;;;;;;;5.70;3.07;;;;;;;22.71;66.43;100579.66;5106955;28;20498;-59
2023/09/07 08:26:09;;;;;;;4.10;3.17;;;;;;;22.72;66.49;100577.63;5094303;28;20186;-59
2023/09/07 08:28:34;;;;;;;5.27;3.43;;;;;;;22.72;66.25;100583.38;5087911;28;20163;-58
2023/09/07 08:31:00;;;;;;;5.30;3.20;;;;;;;22.71;66.87;100576.78;5090795;28;20439;-59
2023/09/07 08:33:29;;;;;;;5.00;3.50;;;;;;;22.71;66.29;100571.03;5105434;28;20934;-59
2023/09/07 08:35:55;;;;;;;4.30;3.03;;;;;;;22.72;66.60;100577.63;5108560;28;20807;-58
2023/09/07 08:38:24;;;;;;;4.67;3.30;;;;;;;22.73;66.61;100585.03;5092203;28;20859;-59
2023/09/07 08:40:51;;;;;;;5.97;2.80;;;;;;;22.72;66.67;100581.31;5088121;28;20951;-59
2023/09/07 08:43:18;;;;;;;5.20;3.77;;;;;;;22.72;66.64;100574.75;5088583;28;20459;-59
2023/09/07 08:45:48;;;;;;;6.43;2.90;;;;;;;22.72;67.15;100583.38;5069653;28;20431;-59
2023/09/07 08:48:17;;;;;;;7.80;3.70;;;;;;;22.71;66.91;100573.91;5105102;28;20911;-58
2023/09/07 08:50:42;;;;;;;4.33;3.23;;;;;;;22.72;66.86;100574.75;5093318;28;20424;-58
2023/09/07 08:53:08;;;;;;;4.33;3.40;;;;;;;22.73;66.91;100580.06;5070935;28;20447;-59
2023/09/07 08:55:33;;;;;;;5.33;3.20;;;;;;;22.73;66.61;100579.25;5095145;28;20619;-59
2023/09/07 08:57:59;;;;;;;4.43;3.37;;;;;;;22.72;67.08;100577.63;5096659;28;20553;-59
2023/09/07 09:00:24;;;;;;;5.00;2.73;;;;;;;22.71;66.77;100575.94;5080775;28;20188;-58
2023/09/07 09:02:50;;;;;;;4.97;3.50;;;;;;;22.72;66.91;100578.44;5085739;28;20204;-60
2023/09/07 09:05:17;;;;;;;8.10;3.53;;;;;;;22.71;67.49;100576.78;5087848;28;20579;-59
2023/09/07 09:07:43;;;;;;;6.80;3.60;;;;;;;22.72;67.59;100587.06;5098643;28;21969;-59
2023/09/07 09:10:09;;;;;;;4.53;3.50;;;;;;;22.74;67.17;100580.91;5089127;28;20412;-59
2023/09/07 09:12:35;;;;;;;4.30;3.20;;;;;;;22.75;67.39;100582.56;5087183;28;20281;-59
2023/09/07 09:15:03;;;;;;;5.23;3.10;;;;;;;22.74;67.46;100581.75;5097905;28;20188;-58
2023/09/07 09:17:28;;;;;;;4.90;3.00;;;;;;;22.75;67.32;100589.16;5087737;28;20226;-60
2023/09/07 09:19:53;;;;;;;10.47;3.70;;;;;;;22.75;67.24;100583.38;5090601;28;20907;-58
2023/09/07 09:22:20;;;;;;;5.37;4.10;;;;;;;22.75;67.14;100580.50;5087824;28;20577;-59
2023/09/07 09:24:47;;;;;;;6.33;3.30;;;;;;;22.76;67.14;100584.19;5087156;28;20530;-59
2023/09/07 09:27:13;;;;;;;6.63;3.77;;;;;;;22.76;67.33;100584.19;5094582;28;20429;-59
2023/09/07 09:29:38;;;;;;;5.40;3.70;;;;;;;22.76;67.29;100569.81;5100116;28;20493;-59
2023/09/07 09:32:04;;;;;;;5.53;3.53;;;;;;;22.76;67.22;100573.53;5099270;28;20177;-59
2023/09/07 09:34:36;;;;;;;6.13;3.70;;;;;;;22.76;67.24;100562.00;5085251;28;20198;-59
2023/09/07 09:37:03;;;;;;;5.63;3.50;;;;;;;22.78;67.46;100564.50;5089882;28;20179;-58
2023/09/07 09:39:28;;;;;;;4.87;3.87;;;;;;;22.77;67.58;100566.53;5093844;28;20902;-59
2023/09/07 09:41:55;;;;;;;6.33;3.90;;;;;;;22.77;67.66;100562.84;5093974;28;20538;-60
2023/09/07 09:44:25;;;;;;;5.37;3.83;;;;;;;22.78;67.90;100571.06;5090380;28;20154;-59
2023/09/07 09:46:51;;;;;;;8.40;4.77;;;;;;;22.78;67.40;100565.28;5073115;28;20401;-60
2023/09/07 09:49:16;;;;;;;5.53;3.80;;;;;;;22.78;67.59;100559.53;5075295;28;20447;-58
2023/09/07 09:51:42;;;;;;;6.73;3.97;;;;;;;22.79;67.72;100566.13;5090390;28;20888;-60
2023/09/07 09:54:08;;;;;;;5.67;4.23;;;;;;;22.78;67.37;100562.41;5097013;28;20998;-59
2023/09/07 09:56:34;;;;;;;5.20;3.60;;;;;;;22.78;68.13;100558.72;5091747;28;20170;-59
2023/09/07 09:58:59;;;;;;;5.30;3.87;;;;;;;22.79;67.69;100555.44;5106208;28;20473;-59
2023/09/07 10:01:25;;;;;;;5.43;3.90;;;;;;;22.81;67.46;100557.91;5092683;28;20223;-58
2023/09/07 10:03:50;;;;;;;7.93;4.07;;;;;;;22.81;67.96;100552.97;5092053;28;20246;-60
2023/09/07 10:06:20;;;;;;;5.53;3.53;;;;;;;22.81;68.03;100552.97;5104956;28;20189;-59
2023/09/07 10:08:59;;;;;;;4.67;3.80;;;;;;;22.81;68.03;100552.97;5110262;28;21002;-59
2023/09/07 10:11:35;;;;;;;6.27;3.80;;;;;;;22.83;67.49;100555.47;5092720;28;20394;-59
2023/09/07 10:14:03;;;;;;;7.23;3.77;;;;;;;22.82;67.82;100557.50;5101771;28;20455;-58
2023/09/07 10:16:29;;;;;;;5.07;3.30;;;;;;;22.84;67.95;100551.34;5110861;28;20520;-60
2023/09/07 10:18:54;;;;;;;5.30;3.80;;;;;;;22.84;67.75;100551.34;5108367;28;20400;-59
2023/09/07 10:21:23;;;;;;;10.77;4.27;;;;;;;22.83;67.86;100543.94;5094390;28;20209;-60
2023/09/07 10:23:48;;;;;;;7.83;4.50;;;;;;;22.83;67.81;100550.50;5056105;28;20186;-59
2023/09/07 10:26:15;;;;;;;6.50;3.87;;;;;;;22.83;67.83;100539.00;5057902;28;20451;-59
2023/09/07 10:28:41;;;;;;;5.60;3.87;;;;;;;22.84;67.79;100534.91;5085075;28;20628;-59
2023/09/07 10:31:13;;;;;;;5.93;3.87;;;;;;;22.84;67.72;100537.78;5106001;28;20542;-59
2023/09/07 10:33:39;;;;;;;7.50;4.30;;;;;;;22.85;68.05;100533.69;5110576;28;20181;-59
2023/09/07 10:36:05;;;;;;;7.17;4.30;;;;;;;22.84;68.17;100534.91;5110817;28;20414;-59
2023/09/07 10:38:34;;;;;;;5.90;4.10;;;;;;;22.85;67.76;100530.78;5090344;28;20161;-60
2023/09/07 10:41:01;;;;;;;6.77;4.13;;;;;;;22.86;67.64;100531.59;5089387;28;20455;-59
2023/09/07 10:43:30;;;;;;;4.70;3.60;;;;;;;22.85;67.97;100527.91;5110425;28;20403;-59
2023/09/07 10:45:56;;;;;;;5.97;4.33;;;;;;;22.85;68.06;100518.44;5110260;28;20412;-59
2023/09/07 10:48:22;;;;;;;7.73;4.23;;;;;;;22.85;68.01;100519.28;5086238;28;21246;-59
2023/09/07 10:50:48;;;;;;;7.00;4.57;;;;;;;22.86;68.11;100515.16;5090056;28;20886;-59
2023/09/07 10:53:14;;;;;;;6.47;4.50;;;;;;;22.85;67.80;100507.75;5090125;28;20416;-58
2023/09/07 10:55:40;;;;;;;4.80;3.63;;;;;;;22.84;68.28;100509.00;5101363;28;20201;-59
2023/09/07 10:58:06;;;;;;;5.43;4.17;;;;;;;22.85;68.25;100506.94;5099761;28;21018;-60
2023/09/07 11:00:31;;;;;;;7.03;5.10;;;;;;;22.85;68.42;100507.75;5102173;28;20193;-59
2023/09/07 11:02:57;;;;;;;5.37;3.70;;;;;;;22.86;68.41;100503.66;5097720;28;20181;-59
2023/09/07 11:05:22;;;;;;;5.07;3.77;;;;;;;22.85;68.50;100507.75;5071430;28;20182;-59
2023/09/07 11:07:47;;;;;;;5.80;4.27;;;;;;;22.88;68.03;100506.94;5088934;28;20183;-59
2023/09/07 11:10:13;;;;;;;6.83;4.13;;;;;;;22.86;68.02;100502.81;5089293;28;20174;-60
2023/09/07 11:12:39;;;;;;;6.40;3.80;;;;;;;22.87;68.34;100499.53;5092325;28;20174;-60
2023/09/07 11:15:05;;;;;;;6.43;4.23;;;;;;;22.87;68.31;100496.66;5072546;28;20182;-59
2023/09/07 11:17:30;;;;;;;10.63;3.70;;;;;;;22.86;68.54;100500.78;5051844;28;20658;-61